createdAt,value
2019-01-09T00:01:13.979Z,-6.98
2019-01-09T00:03:42.828Z,-7.06
2019-01-09T00:06:11.502Z,-7.22
2019-01-09T00:08:40.181Z,-7.23
2019-01-09T00:11:08.910Z,-7.40
2019-01-09T00:13:37.418Z,-7.50
2019-01-09T00:16:06.105Z,-7.63
2019-01-09T00:18:34.857Z,-7.73
2019-01-09T00:21:03.535Z,-7.82
2019-01-09T00:23:32.212Z,-7.87
2019-01-09T00:26:01.046Z,-7.90
2019-01-09T00:28:29.723Z,-7.80
2019-01-09T00:30:59.952Z,-7.64
2019-01-09T00:33:28.661Z,-7.65
2019-01-09T00:35:57.381Z,-7.69
2019-01-09T00:38:26.071Z,-7.87
2019-01-09T00:40:55.753Z,-7.78
2019-01-09T00:43:24.437Z,-7.83
2019-01-09T00:45:53.115Z,-7.75
2019-01-09T00:48:22.053Z,-7.84
2019-01-09T00:50:50.666Z,-7.68
2019-01-09T00:53:19.342Z,-7.76
2019-01-09T00:55:48.083Z,-7.80
2019-01-09T00:58:16.911Z,-7.78
2019-01-09T01:00:45.590Z,-7.78
2019-01-09T01:03:29.420Z,-7.60
2019-01-09T01:06:16.154Z,-7.60
2019-01-09T01:09:21.430Z,-7.67
2019-01-09T01:12:09.801Z,-7.60
2019-01-09T01:15:16.672Z,-7.60
2019-01-09T01:18:12.405Z,-7.61
2019-01-09T01:20:46.767Z,-7.49
2019-01-09T01:23:36.355Z,-7.37
2019-01-09T01:26:16.619Z,-7.30
2019-01-09T01:28:56.851Z,-7.33
2019-01-09T01:31:31.066Z,-7.20
2019-01-09T01:34:16.905Z,-7.23
2019-01-09T01:36:54.742Z,-7.30
2019-01-09T01:39:38.235Z,-7.30
2019-01-09T01:42:21.177Z,-7.34
2019-01-09T01:44:55.547Z,-7.34
2019-01-09T01:47:36.224Z,-7.29
2019-01-09T01:50:16.800Z,-7.27
2019-01-09T01:53:09.645Z,-7.27
2019-01-09T01:55:56.498Z,-7.31
2019-01-09T01:58:46.366Z,-7.24
2019-01-09T02:01:40.811Z,-6.90
2019-01-09T02:04:18.530Z,-6.90
2019-01-09T02:07:06.869Z,-6.84
2019-01-09T02:09:38.558Z,-6.43
2019-01-09T02:12:26.340Z,-6.49
2019-01-09T02:15:12.904Z,-6.62
2019-01-09T02:17:47.002Z,-6.51
2019-01-09T02:20:35.349Z,-6.81
2019-01-09T02:23:37.128Z,-6.92
2019-01-09T02:26:35.880Z,-7.00
2019-01-09T02:29:19.360Z,-6.81
2019-01-09T02:32:18.619Z,-6.78
2019-01-09T02:34:47.290Z,-6.82
2019-01-09T02:37:15.982Z,-6.56
2019-01-09T02:39:44.971Z,-6.43
2019-01-09T02:42:13.651Z,-6.43
2019-01-09T02:44:42.339Z,-6.50
2019-01-09T02:47:11.057Z,-6.69
2019-01-09T02:49:39.746Z,-6.69
2019-01-09T02:52:08.434Z,-6.85
2019-01-09T02:54:37.278Z,-7.04
2019-01-09T02:57:05.968Z,-7.04
2019-01-09T02:59:34.648Z,-7.03
2019-01-09T03:02:03.671Z,-7.01
2019-01-09T03:04:32.442Z,-6.90
2019-01-09T03:07:01.122Z,-6.66
2019-01-09T03:09:29.846Z,-6.30
2019-01-09T03:11:58.527Z,-6.15
2019-01-09T03:14:27.710Z,-5.91
2019-01-09T03:16:56.530Z,-5.91
2019-01-09T03:19:25.240Z,-5.86
2019-01-09T03:21:53.917Z,-6.06
2019-01-09T03:24:22.667Z,-6.04
2019-01-09T03:26:51.345Z,-6.23
2019-01-09T03:29:20.026Z,-6.22
2019-01-09T03:31:48.881Z,-6.22
2019-01-09T03:34:17.560Z,-6.07
2019-01-09T03:36:46.244Z,-6.09
2019-01-09T03:39:15.009Z,-6.07
2019-01-09T03:41:43.699Z,-6.10
2019-01-09T03:44:12.377Z,-6.10
2019-01-09T03:46:41.207Z,-6.11
2019-01-09T03:49:09.899Z,-5.54
2019-01-09T03:51:38.577Z,-5.84
2019-01-09T03:54:07.404Z,-5.84
2019-01-09T03:56:37.118Z,-5.71
2019-01-09T03:59:05.810Z,-5.51
2019-01-09T04:01:34.704Z,-5.36
2019-01-09T04:04:03.388Z,-5.38
2019-01-09T04:06:32.084Z,-5.38
2019-01-09T04:09:00.837Z,-5.21
2019-01-09T04:11:29.526Z,-5.17
2019-01-09T04:13:58.215Z,-5.17
2019-01-09T04:16:27.164Z,-5.23
2019-01-09T04:18:55.843Z,-5.23
2019-01-09T04:21:24.526Z,-5.08
2019-01-09T04:23:53.489Z,-5.15
2019-01-09T04:26:22.163Z,-5.12
2019-01-09T04:28:50.850Z,-5.12
2019-01-09T04:31:19.703Z,-5.03
2019-01-09T04:33:48.400Z,-5.09
2019-01-09T04:36:17.066Z,-5.01
2019-01-09T04:38:45.834Z,-5.10
2019-01-09T04:41:14.522Z,-5.10
2019-01-09T04:43:43.203Z,-5.03
2019-01-09T04:46:11.984Z,-5.13
2019-01-09T04:48:40.658Z,-5.13
2019-01-09T04:51:09.342Z,-5.02
2019-01-09T04:53:38.182Z,-5.02
2019-01-09T04:56:06.886Z,-4.94
2019-01-09T04:58:35.498Z,-4.96
2019-01-09T05:01:04.307Z,-4.96
2019-01-09T05:03:33.031Z,-5.05
2019-01-09T05:06:01.710Z,-5.11
2019-01-09T05:08:30.420Z,-5.02
2019-01-09T05:10:59.109Z,-5.04
2019-01-09T05:13:27.790Z,-5.04
2019-01-09T05:15:56.531Z,-5.03
2019-01-09T05:18:25.207Z,-5.08
2019-01-09T05:20:53.956Z,-4.99
2019-01-09T05:23:22.774Z,-5.04
2019-01-09T05:25:53.238Z,-5.08
2019-01-09T05:28:21.929Z,-5.00
2019-01-09T05:30:53.813Z,-5.07
2019-01-09T05:33:22.502Z,-5.13
2019-01-09T05:35:51.277Z,-5.13
2019-01-09T05:38:20.105Z,-5.16
2019-01-09T05:40:48.796Z,-5.09
2019-01-09T05:43:17.627Z,-4.92
2019-01-09T05:45:46.396Z,-4.96
2019-01-09T05:48:15.237Z,-5.14
2019-01-09T05:50:43.899Z,-5.11
2019-01-09T05:53:12.662Z,-5.22
2019-01-09T05:55:41.333Z,-5.38
2019-01-09T05:58:10.030Z,-5.48
2019-01-09T06:00:38.888Z,-5.77
2019-01-09T06:03:07.584Z,-5.88
2019-01-09T06:05:38.745Z,-5.86
2019-01-09T06:08:07.527Z,-5.68
2019-01-09T06:10:36.205Z,-5.31
2019-01-09T06:13:04.884Z,-5.52
2019-01-09T06:15:33.616Z,-5.52
2019-01-09T06:18:02.295Z,-5.93
2019-01-09T06:20:30.981Z,-6.12
2019-01-09T06:22:59.744Z,-6.08
2019-01-09T06:25:28.419Z,-5.99
2019-01-09T06:27:57.104Z,-6.15
2019-01-09T06:30:25.901Z,-6.15
2019-01-09T06:32:54.583Z,-6.03
2019-01-09T06:35:23.276Z,-5.62
2019-01-09T06:37:52.021Z,-5.65
2019-01-09T06:40:20.718Z,-5.65
2019-01-09T06:42:49.390Z,-5.64
2019-01-09T06:45:18.397Z,-5.40
2019-01-09T06:47:47.083Z,-5.18
2019-01-09T06:50:18.129Z,-5.29
2019-01-09T06:52:46.821Z,-5.03
2019-01-09T06:55:15.532Z,-4.95
2019-01-09T06:57:44.254Z,-4.95
2019-01-09T07:00:12.931Z,-4.81
2019-01-09T07:02:41.618Z,-4.37
2019-01-09T07:05:10.442Z,-4.02
2019-01-09T07:07:39.339Z,-4.02
2019-01-09T07:10:08.723Z,-3.80
2019-01-09T07:12:37.438Z,-3.68
2019-01-09T07:15:11.825Z,-3.13
2019-01-09T07:17:37.632Z,-2.92
2019-01-09T07:20:06.853Z,-2.41
2019-01-09T07:22:35.549Z,-1.75
2019-01-09T07:25:04.637Z,-1.75
2019-01-09T07:27:33.556Z,-1.65
2019-01-09T07:30:02.238Z,-1.76
2019-01-09T07:32:30.917Z,-1.96
2019-01-09T07:34:59.725Z,-1.54
2019-01-09T07:37:28.413Z,-1.22
2019-01-09T07:39:57.086Z,-1.22
2019-01-09T07:42:25.919Z,-1.12
2019-01-09T07:44:54.609Z,-0.49
2019-01-09T07:47:23.299Z,-0.37
2019-01-09T07:49:52.225Z,-0.34
2019-01-09T07:52:20.917Z,-0.14
2019-01-09T07:54:49.589Z,-0.25
2019-01-09T07:57:18.488Z,-0.58
2019-01-09T07:59:47.175Z,-0.71
2019-01-09T08:02:15.864Z,-0.87
2019-01-09T08:04:44.713Z,-1.05
2019-01-09T08:07:13.400Z,-1.20
2019-01-09T08:09:42.087Z,-1.18
2019-01-09T08:12:10.849Z,-0.91
2019-01-09T08:14:39.528Z,-0.51
2019-01-09T08:17:08.213Z,-0.61
2019-01-09T08:19:36.966Z,-1.15
2019-01-09T08:22:05.576Z,-1.57
2019-01-09T08:24:34.250Z,-1.56
2019-01-09T08:27:02.976Z,-1.66
2019-01-09T08:29:31.612Z,-1.85
2019-01-09T08:32:00.290Z,-1.81
2019-01-09T08:34:29.271Z,-1.74
2019-01-09T08:36:57.949Z,-1.32
2019-01-09T08:39:26.635Z,-0.97
2019-01-09T08:41:56.844Z,-1.29
2019-01-09T08:44:25.539Z,-1.10
2019-01-09T08:46:54.214Z,-1.00
2019-01-09T08:49:23.041Z,-0.66
2019-01-09T08:51:51.738Z,-0.15
2019-01-09T08:54:20.411Z,0.47
2019-01-09T08:56:49.272Z,0.39
2019-01-09T08:59:17.944Z,0.87
2019-01-09T09:01:46.622Z,0.85
2019-01-09T09:04:15.459Z,0.65
2019-01-09T09:06:44.149Z,0.54
2019-01-09T09:09:13.238Z,0.76
2019-01-09T09:11:42.132Z,0.65
2019-01-09T09:14:12.320Z,0.54
2019-01-09T09:16:40.999Z,0.11
2019-01-09T09:19:09.910Z,0.21
2019-01-09T09:21:38.594Z,0.04
2019-01-09T09:24:07.284Z,0.44
2019-01-09T09:26:36.023Z,0.52
2019-01-09T09:29:04.697Z,0.28
2019-01-09T09:31:33.377Z,0.09
2019-01-09T09:34:03.093Z,-0.11
2019-01-09T09:36:31.779Z,-0.09
2019-01-09T09:39:00.457Z,0.25
2019-01-09T09:41:29.189Z,0.62
2019-01-09T09:43:57.861Z,0.66
2019-01-09T09:46:26.533Z,0.79
2019-01-09T09:48:55.449Z,0.80
2019-01-09T09:51:24.144Z,0.92
2019-01-09T09:53:52.841Z,0.92
2019-01-09T09:56:21.675Z,0.75
2019-01-09T09:58:50.358Z,0.43
2019-01-09T10:01:19.045Z,0.74
2019-01-09T10:03:49.247Z,0.74
2019-01-09T10:06:17.928Z,0.66
2019-01-09T10:08:46.616Z,0.55
2019-01-09T10:11:15.458Z,0.79
2019-01-09T10:13:44.139Z,0.83
2019-01-09T10:16:12.838Z,0.72
2019-01-09T10:18:41.600Z,1.27
2019-01-09T10:21:10.284Z,1.21
2019-01-09T10:23:38.958Z,1.10
2019-01-09T10:26:07.682Z,1.31
2019-01-09T10:28:36.364Z,1.36
2019-01-09T10:31:05.152Z,1.33
2019-01-09T10:33:34.021Z,1.22
2019-01-09T10:36:02.704Z,1.37
2019-01-09T10:38:37.923Z,0.76
2019-01-09T10:41:01.927Z,0.93
2019-01-09T10:43:30.605Z,1.25
2019-01-09T10:45:59.291Z,0.89
2019-01-09T10:48:28.128Z,0.77
2019-01-09T10:50:56.803Z,0.42
2019-01-09T10:53:25.487Z,0.45
2019-01-09T10:55:54.318Z,0.37
2019-01-09T10:58:23.005Z,0.51
2019-01-09T11:00:51.690Z,0.74
2019-01-09T11:03:20.667Z,0.83
2019-01-09T11:05:49.360Z,0.95
2019-01-09T11:08:18.056Z,1.16
2019-01-09T11:10:46.832Z,1.17
2019-01-09T11:13:15.511Z,1.17
2019-01-09T11:15:44.211Z,0.73
2019-01-09T11:18:13.046Z,0.75
2019-01-09T11:20:41.719Z,0.54
2019-01-09T11:23:10.423Z,0.69
2019-01-09T11:25:39.142Z,0.77
2019-01-09T11:28:07.833Z,0.67
2019-01-09T11:30:36.614Z,0.66
2019-01-09T11:33:05.460Z,0.63
2019-01-09T11:35:34.146Z,0.80
2019-01-09T11:38:02.830Z,0.25
2019-01-09T11:40:31.591Z,0.79
2019-01-09T11:43:00.276Z,0.69
2019-01-09T11:45:28.958Z,0.74
2019-01-09T11:47:57.880Z,0.71
2019-01-09T11:50:26.555Z,0.92
2019-01-09T11:52:55.244Z,1.06
2019-01-09T11:55:24.069Z,1.26
2019-01-09T11:57:52.743Z,1.26
2019-01-09T12:00:24.000Z,1.40
2019-01-09T12:02:52.868Z,1.13
2019-01-09T12:05:21.542Z,0.88
2019-01-09T12:07:50.327Z,0.56
2019-01-09T12:10:29.955Z,0.72
2019-01-09T12:12:52.279Z,0.68
2019-01-09T12:15:21.352Z,0.67
2019-01-09T12:17:50.368Z,0.77
2019-01-09T12:20:20.246Z,0.84
2019-01-09T12:22:49.839Z,0.83
2019-01-09T12:25:18.570Z,0.73
2019-01-09T12:27:47.572Z,0.81
2019-01-09T12:30:19.500Z,1.09
2019-01-09T12:32:48.345Z,1.00
2019-01-09T12:35:17.024Z,1.19
2019-01-09T12:37:45.783Z,1.29
2019-01-09T12:40:14.528Z,1.26
2019-01-09T12:42:43.206Z,1.43
2019-01-09T12:45:14.670Z,1.31
2019-01-09T12:47:43.484Z,1.14
2019-01-09T12:50:15.668Z,1.18
2019-01-09T12:52:44.354Z,1.41
2019-01-09T12:55:13.793Z,1.43
2019-01-09T12:57:42.647Z,1.63
2019-01-09T13:00:17.307Z,1.40
2019-01-09T13:02:46.038Z,1.34
2019-01-09T13:05:14.956Z,1.35
2019-01-09T13:07:43.770Z,1.42
2019-01-09T13:10:12.564Z,1.21
2019-01-09T13:12:41.429Z,0.99
2019-01-09T13:15:11.174Z,0.97
2019-01-09T13:17:39.854Z,1.07
2019-01-09T13:22:47.299Z,1.11
2019-01-09T13:25:16.084Z,1.30
2019-01-09T13:27:45.167Z,1.25
2019-01-09T13:30:22.219Z,1.13
2019-01-09T13:32:50.886Z,0.99
2019-01-09T13:35:19.664Z,0.99
2019-01-09T13:37:48.509Z,1.05
2019-01-09T13:40:19.269Z,1.08
2019-01-09T13:42:47.942Z,1.00
2019-01-09T13:45:18.833Z,0.95
2019-01-09T13:47:48.022Z,0.71
2019-01-09T13:50:18.512Z,0.79
2019-01-09T13:52:47.347Z,0.65
2019-01-09T13:55:17.132Z,0.84
2019-01-09T13:57:45.880Z,1.11
2019-01-09T14:00:22.045Z,1.07
2019-01-09T14:02:50.825Z,0.99
2019-01-09T14:05:22.107Z,0.92
2019-01-09T14:07:50.864Z,0.97
2019-01-09T14:10:23.687Z,1.08
2019-01-09T14:12:52.370Z,0.87
2019-01-09T14:15:22.177Z,0.83
2019-01-09T14:17:51.152Z,1.03
2019-01-09T14:20:21.414Z,1.15
2019-01-09T14:22:54.394Z,1.37
2019-01-09T14:25:23.045Z,1.21
2019-01-09T14:27:51.722Z,1.23
2019-01-09T14:30:23.340Z,1.10
2019-01-09T14:32:52.012Z,0.94
2019-01-09T14:35:20.696Z,1.14
2019-01-09T14:37:49.651Z,1.05
2019-01-09T14:40:20.038Z,0.72
2019-01-09T14:42:48.808Z,0.64
2019-01-09T14:45:18.169Z,0.73
2019-01-09T14:47:46.953Z,0.46
2019-01-09T14:50:18.047Z,0.33
2019-01-09T14:52:46.890Z,0.36
2019-01-09T14:55:17.652Z,0.38
2019-01-09T14:57:46.879Z,0.42
2019-01-09T15:00:20.897Z,0.43
2019-01-09T15:02:49.571Z,0.29
2019-01-09T15:05:18.259Z,0.13
2019-01-09T15:07:47.079Z,-0.18
2019-01-09T15:10:27.108Z,-0.34
2019-01-09T15:12:56.346Z,-0.32
2019-01-09T15:15:27.428Z,-0.33
2019-01-09T15:17:56.108Z,-0.30
2019-01-09T15:20:24.876Z,-0.44
2019-01-09T15:22:53.562Z,-0.34
2019-01-09T15:25:22.238Z,-0.48
2019-01-09T15:27:51.044Z,-0.55
2019-01-09T15:30:22.809Z,-0.52
2019-01-09T15:32:51.593Z,-0.30
2019-01-09T15:35:20.824Z,-0.40
2019-01-09T15:37:49.495Z,-0.43
2019-01-09T15:40:29.302Z,-0.51
2019-01-09T15:42:57.982Z,-0.47
2019-01-09T15:45:26.768Z,-0.36
2019-01-09T15:47:55.706Z,-0.28
2019-01-09T15:50:26.688Z,-0.18
2019-01-09T15:52:55.386Z,-0.17
2019-01-09T15:55:24.224Z,-0.05
2019-01-09T15:57:54.300Z,0.10
2019-01-09T16:00:37.892Z,0.06
2019-01-09T16:03:07.088Z,-0.03
2019-01-09T16:05:35.773Z,-0.09
2019-01-09T16:08:04.981Z,-0.03
2019-01-09T16:10:33.665Z,-0.17
2019-01-09T16:13:02.358Z,-0.15
2019-01-09T16:15:31.206Z,0.03
2019-01-09T16:17:59.873Z,0.07
2019-01-09T16:20:28.547Z,0.04
2019-01-09T16:22:57.282Z,0.04
2019-01-09T16:25:26.153Z,0.05
2019-01-09T16:27:54.840Z,0.09
2019-01-09T16:30:34.293Z,0.03
2019-01-09T16:33:02.905Z,-0.05
2019-01-09T16:35:34.266Z,-0.03
2019-01-09T16:38:04.390Z,0.02
2019-01-09T16:40:33.078Z,0.10
2019-01-09T16:43:01.768Z,-0.01
2019-01-09T16:45:30.491Z,0.00
2019-01-09T16:47:59.177Z,-0.01
2019-01-09T16:50:27.854Z,0.02
2019-01-09T16:52:56.709Z,0.05
2019-01-09T16:55:25.874Z,0.01
2019-01-09T16:57:54.552Z,0.07
2019-01-09T17:00:26.561Z,-0.03
2019-01-09T17:02:55.279Z,0.02
2019-01-09T17:05:23.954Z,-0.05
2019-01-09T17:07:53.248Z,0.05
2019-01-09T17:10:31.887Z,0.05
2019-01-09T17:12:53.962Z,-0.07
2019-01-09T17:15:22.714Z,-0.10
2019-01-09T17:17:51.406Z,-0.06
2019-01-09T17:20:22.298Z,-0.23
2019-01-09T17:22:51.911Z,-0.45
2019-01-09T17:25:20.602Z,-0.40
2019-01-09T17:27:49.383Z,-0.42
2019-01-09T17:30:23.615Z,-0.44
2019-01-09T17:32:52.303Z,-0.26
2019-01-09T17:35:20.976Z,-0.16
2019-01-09T17:37:50.979Z,0.14
2019-01-09T17:40:21.942Z,0.04
2019-01-09T17:42:51.109Z,-0.13
2019-01-09T17:45:20.033Z,-0.38
2019-01-09T17:47:48.720Z,-0.45
2019-01-09T17:50:32.051Z,-0.57
2019-01-09T17:53:00.934Z,-0.62
2019-01-09T17:55:29.603Z,-0.58
2019-01-09T17:57:58.535Z,-0.61
2019-01-09T18:00:35.700Z,-0.62
2019-01-09T18:03:04.653Z,-0.58
2019-01-09T18:05:33.349Z,-0.83
2019-01-09T18:08:10.163Z,-0.92
2019-01-09T18:10:32.519Z,-0.87
2019-01-09T18:13:01.207Z,-0.89
2019-01-09T18:15:29.902Z,-1.08
2019-01-09T18:17:58.655Z,-1.17
2019-01-09T18:20:27.445Z,-1.12
2019-01-09T18:22:56.126Z,-1.37
2019-01-09T18:25:27.640Z,-1.20
2019-01-09T18:27:56.331Z,-1.11
2019-01-09T18:30:28.223Z,-1.06
2019-01-09T18:33:02.635Z,-1.30
2019-01-09T18:35:37.087Z,-1.22
2019-01-09T18:38:20.462Z,-1.45
2019-01-09T18:41:14.245Z,-1.45
2019-01-09T18:44:02.314Z,-1.42
2019-01-09T18:46:45.874Z,-1.25
2019-01-09T18:49:33.952Z,-1.49
2019-01-09T18:52:20.595Z,-1.55
2019-01-09T18:54:49.323Z,-1.40
2019-01-09T18:57:18.006Z,-1.40
2019-01-09T18:59:46.694Z,-1.42
2019-01-09T19:02:16.020Z,-1.39
2019-01-09T19:04:44.678Z,-1.60
2019-01-09T19:07:16.608Z,-1.60
2019-01-09T19:09:46.774Z,-1.68
2019-01-09T19:12:15.614Z,-1.66
2019-01-09T19:14:45.736Z,-1.59
2019-01-09T19:17:14.947Z,-1.64
2019-01-09T19:19:43.729Z,-1.69
2019-01-09T19:22:12.577Z,-1.73
2019-01-09T19:24:42.102Z,-1.73
2019-01-09T19:27:10.930Z,-1.73
2019-01-09T19:29:39.895Z,-1.67
2019-01-09T19:32:08.847Z,-1.54
2019-01-09T19:34:37.524Z,-1.53
2019-01-09T19:37:06.308Z,-1.67
2019-01-09T19:39:35.142Z,-1.63
2019-01-09T19:42:03.838Z,-1.74
2019-01-09T19:44:32.528Z,-1.78
2019-01-09T19:47:01.852Z,-1.78
2019-01-09T19:49:30.529Z,-1.55
2019-01-09T19:51:59.146Z,-1.61
2019-01-09T19:54:28.163Z,-1.28
2019-01-09T19:56:57.057Z,-1.44
2019-01-09T19:59:25.739Z,-1.34
2019-01-09T20:01:54.580Z,-1.45
2019-01-09T20:04:23.267Z,-1.47
2019-01-09T20:06:51.967Z,-1.56
2019-01-09T20:09:20.706Z,-1.56
2019-01-09T20:11:49.429Z,-1.51
2019-01-09T20:14:18.120Z,-1.72
2019-01-09T20:16:46.915Z,-1.62
2019-01-09T20:19:15.609Z,-1.57
2019-01-09T20:21:44.329Z,-1.33
2019-01-09T20:24:12.996Z,-1.35
2019-01-09T20:26:41.754Z,-1.48
2019-01-09T20:29:10.568Z,-1.60
2019-01-09T20:31:40.931Z,-1.47
2019-01-09T20:34:09.601Z,-1.54
2019-01-09T20:36:38.326Z,-1.48
2019-01-09T20:39:08.107Z,-1.59
2019-01-09T20:41:36.798Z,-1.64
2019-01-09T20:44:05.728Z,-1.64
2019-01-09T20:46:34.493Z,-1.63
2019-01-09T20:49:03.240Z,-1.65
2019-01-09T20:51:32.043Z,-1.67
2019-01-09T20:54:00.853Z,-1.69
2019-01-09T20:56:29.555Z,-1.73
2019-01-09T20:58:58.220Z,-1.68
2019-01-09T21:01:27.082Z,-1.85
2019-01-09T21:03:55.834Z,-1.90
2019-01-09T21:06:24.536Z,-1.77
2019-01-09T21:08:59.526Z,-1.71
2019-01-09T21:11:23.672Z,-1.90
2019-01-09T21:13:53.128Z,-1.79
2019-01-09T21:16:21.929Z,-1.71
2019-01-09T21:18:50.738Z,-1.75
2019-01-09T21:21:19.423Z,-1.81
2019-01-09T21:23:48.148Z,-1.86
2019-01-09T21:26:16.835Z,-1.94
2019-01-09T21:28:45.516Z,-2.07
2019-01-09T21:31:14.361Z,-1.92
2019-01-09T21:33:43.054Z,-1.91
2019-01-09T21:36:11.734Z,-2.09
2019-01-09T21:38:40.465Z,-2.07
2019-01-09T21:41:09.139Z,-1.97
2019-01-09T21:43:37.833Z,-2.01
2019-01-09T21:46:06.781Z,-2.05
2019-01-09T21:48:35.474Z,-1.96
2019-01-09T21:51:04.353Z,-1.95
2019-01-09T21:53:33.213Z,-1.94
2019-01-09T21:56:01.897Z,-1.89
2019-01-09T21:58:30.630Z,-1.98
2019-01-09T22:00:59.455Z,-2.00
2019-01-09T22:03:28.137Z,-2.01
2019-01-09T22:05:56.816Z,-2.00
2019-01-09T22:08:25.633Z,-1.92
2019-01-09T22:10:54.317Z,-1.92
2019-01-09T22:13:23.008Z,-1.83
2019-01-09T22:15:51.970Z,-1.95
2019-01-09T22:18:20.750Z,-1.82
2019-01-09T22:20:49.450Z,-1.96
2019-01-09T22:23:18.609Z,-1.93
2019-01-09T22:25:47.293Z,-1.76
2019-01-09T22:28:15.980Z,-1.83
2019-01-09T22:30:44.888Z,-1.73
2019-01-09T22:33:13.668Z,-1.76
2019-01-09T22:35:42.346Z,-1.69
2019-01-09T22:38:11.105Z,-1.54
2019-01-09T22:40:39.796Z,-1.71
2019-01-09T22:43:08.472Z,-1.80
2019-01-09T22:45:37.308Z,-1.70
2019-01-09T22:48:05.991Z,-1.61
2019-01-09T22:50:34.671Z,-1.74
2019-01-09T22:53:03.595Z,-1.77
2019-01-09T22:55:32.281Z,-1.67
2019-01-09T22:58:00.966Z,-1.89
2019-01-09T23:00:44.534Z,-1.77
2019-01-09T23:03:20.202Z,-1.75
2019-01-09T23:05:50.320Z,-1.83
2019-01-09T23:08:32.404Z,-1.83
2019-01-09T23:11:01.195Z,-1.78
2019-01-09T23:13:30.691Z,-1.93
2019-01-09T23:15:59.375Z,-1.90
2019-01-09T23:18:28.470Z,-1.76
2019-01-09T23:20:57.155Z,-1.86
2019-01-09T23:23:25.855Z,-2.03
2019-01-09T23:25:55.049Z,-1.97
2019-01-09T23:28:23.731Z,-1.94
2019-01-09T23:30:52.469Z,-1.89
2019-01-09T23:33:21.730Z,-1.87
2019-01-09T23:35:50.441Z,-1.86
2019-01-09T23:38:19.136Z,-1.82
2019-01-09T23:40:49.419Z,-1.89
2019-01-09T23:43:18.115Z,-1.85
2019-01-09T23:45:47.505Z,-1.93
2019-01-09T23:48:16.296Z,-1.93
2019-01-09T23:50:44.976Z,-1.84
2019-01-09T23:53:13.760Z,-1.82
2019-01-09T23:55:42.685Z,-1.83
2019-01-09T23:58:11.369Z,-1.96
